Portada
METAR-TAF:

METAR-TAF

Aeroports :

Derby, Austràlia

latitud: 17-22-12S, longitud: 123-39-38E, altitud: 7 m

Observació

L'informe es va fer fa 1 hora i 0 minuts, a les 11:00 UTC
Vent 10 kt del Nord-Oest
Temperatura 27°C
Humitat 62%
Pressió 1013 hPa
Visibilitat 10 km o més

METAR: YDBY 181100Z AUTO 32010KT 9999 // NCD 27/19 Q1013

Hora: 20:00 (12:00 UTC)


TAF: manca

Observacions i pronòstics meteorològics de més de 4000 aeroports (METAR i TAF).

Les estacions disponibles són els punts grocs i vermells al mapa.

Posi el ratolí al punt desitjat per veure el nom de l'estació.

Feu clic per veure les observacions i els pronòstics meteorològics.

Per canviar el mapa: feu clic els botons verds amb una creu de color negre per apropar; al botó verd amb un guió per allunyar la imatge; o en les fletxes verdes per a mapes adjacents.


METAR-TAF: